sensor_id;sensor_type;location;lat;lon;timestamp;pressure;altitude;pressure_sealevel;temperature;humidity
36598;BME280;22607;49.550;11.940;2024-02-23T00:02:14;94578.22;;;9.00;100.00
36598;BME280;22607;49.550;11.940;2024-02-23T00:04:41;94580.09;;;9.11;100.00
36598;BME280;22607;49.550;11.940;2024-02-23T00:07:08;94592.69;;;9.21;100.00
36598;BME280;22607;49.550;11.940;2024-02-23T00:09:35;94599.69;;;9.09;100.00
36598;BME280;22607;49.550;11.940;2024-02-23T00:12:03;94616.63;;;9.06;100.00
36598;BME280;22607;49.550;11.940;2024-02-23T00:14:31;94619.34;;;8.74;100.00
36598;BME280;22607;49.550;11.940;2024-02-23T00:16:58;94640.31;;;8.92;100.00
36598;BME280;22607;49.550;11.940;2024-02-23T00:19:27;94646.88;;;9.02;100.00
36598;BME280;22607;49.550;11.940;2024-02-23T00:21:54;94632.50;;;8.86;100.00
36598;BME280;22607;49.550;11.940;2024-02-23T00:24:23;94647.38;;;8.92;100.00
36598;BME280;22607;49.550;11.940;2024-02-23T00:26:50;94638.63;;;8.79;100.00
36598;BME280;22607;49.550;11.940;2024-02-23T00:29:18;94641.59;;;8.83;100.00
36598;BME280;22607;49.550;11.940;2024-02-23T00:31:45;94632.16;;;8.82;100.00
36598;BME280;22607;49.550;11.940;2024-02-23T00:34:15;94643.16;;;8.65;100.00
36598;BME280;22607;49.550;11.940;2024-02-23T00:36:43;94663.72;;;8.62;100.00
36598;BME280;22607;49.550;11.940;2024-02-23T00:39:13;94670.44;;;8.76;100.00
36598;BME280;22607;49.550;11.940;2024-02-23T00:41:40;94658.13;;;8.51;100.00
36598;BME280;22607;49.550;11.940;2024-02-23T00:44:07;94676.75;;;8.69;100.00
36598;BME280;22607;49.550;11.940;2024-02-23T00:46:34;94667.78;;;8.58;100.00
36598;BME280;22607;49.550;11.940;2024-02-23T00:49:01;94665.97;;;8.58;100.00
36598;BME280;22607;49.550;11.940;2024-02-23T00:51:29;94687.13;;;8.50;100.00
36598;BME280;22607;49.550;11.940;2024-02-23T00:53:56;94684.34;;;8.45;100.00
36598;BME280;22607;49.550;11.940;2024-02-23T00:56:23;94691.34;;;8.51;100.00
36598;BME280;22607;49.550;11.940;2024-02-23T00:59:01;94708.63;;;8.52;100.00
36598;BME280;22607;49.550;11.940;2024-02-23T01:01:28;94700.03;;;8.45;100.00
36598;BME280;22607;49.550;11.940;2024-02-23T01:03:56;94704.59;;;8.56;100.00
36598;BME280;22607;49.550;11.940;2024-02-23T01:06:23;94690.47;;;8.32;100.00
36598;BME280;22607;49.550;11.940;2024-02-23T01:08:52;94710.88;;;8.55;100.00
36598;BME280;22607;49.550;11.940;2024-02-23T01:11:19;94715.31;;;8.48;100.00
36598;BME280;22607;49.550;11.940;2024-02-23T01:13:46;94712.19;;;8.32;100.00
36598;BME280;22607;49.550;11.940;2024-02-23T01:16:15;94719.06;;;8.26;100.00
36598;BME280;22607;49.550;11.940;2024-02-23T01:18:42;94732.25;;;8.45;100.00
36598;BME280;22607;49.550;11.940;2024-02-23T01:21:09;94738.22;;;8.59;100.00
36598;BME280;22607;49.550;11.940;2024-02-23T01:23:36;94736.94;;;8.30;100.00
36598;BME280;22607;49.550;11.940;2024-02-23T01:26:06;94720.69;;;8.21;100.00
36598;BME280;22607;49.550;11.940;2024-02-23T01:28:33;94739.16;;;8.33;100.00
36598;BME280;22607;49.550;11.940;2024-02-23T01:31:00;94738.38;;;8.25;100.00
36598;BME280;22607;49.550;11.940;2024-02-23T01:33:27;94737.91;;;8.35;100.00
36598;BME280;22607;49.550;11.940;2024-02-23T01:35:54;94743.00;;;8.23;100.00
36598;BME280;22607;49.550;11.940;2024-02-23T01:38:23;94738.22;;;8.13;100.00
36598;BME280;22607;49.550;11.940;2024-02-23T01:40:51;94740.88;;;8.00;100.00
36598;BME280;22607;49.550;11.940;2024-02-23T01:43:18;94738.88;;;8.02;100.00
36598;BME280;22607;49.550;11.940;2024-02-23T01:45:45;94721.63;;;7.94;100.00
36598;BME280;22607;49.550;11.940;2024-02-23T01:48:12;94736.69;;;7.99;100.00
36598;BME280;22607;49.550;11.940;2024-02-23T01:50:39;94729.06;;;7.91;100.00
36598;BME280;22607;49.550;11.940;2024-02-23T01:53:06;94748.63;;;7.74;100.00
36598;BME280;22607;49.550;11.940;2024-02-23T01:55:33;94752.00;;;7.88;100.00
36598;BME280;22607;49.550;11.940;2024-02-23T01:58:04;94748.75;;;7.93;100.00
36598;BME280;22607;49.550;11.940;2024-02-23T02:00:35;94751.97;;;8.02;100.00
36598;BME280;22607;49.550;11.940;2024-02-23T02:03:02;94768.94;;;7.66;100.00
36598;BME280;22607;49.550;11.940;2024-02-23T02:05:30;94773.19;;;7.53;100.00
36598;BME280;22607;49.550;11.940;2024-02-23T02:07:57;94781.22;;;7.52;100.00
36598;BME280;22607;49.550;11.940;2024-02-23T02:10:27;94781.44;;;7.50;100.00
36598;BME280;22607;49.550;11.940;2024-02-23T02:12:54;94793.69;;;7.56;100.00
36598;BME280;22607;49.550;11.940;2024-02-23T02:15:21;94795.28;;;7.44;100.00
36598;BME280;22607;49.550;11.940;2024-02-23T02:17:49;94805.75;;;7.51;100.00
36598;BME280;22607;49.550;11.940;2024-02-23T02:20:18;94794.72;;;7.42;100.00
36598;BME280;22607;49.550;11.940;2024-02-23T02:22:51;94798.72;;;7.38;100.00
36598;BME280;22607;49.550;11.940;2024-02-23T02:25:18;94826.25;;;7.47;100.00
36598;BME280;22607;49.550;11.940;2024-02-23T02:27:45;94811.78;;;7.38;100.00
36598;BME280;22607;49.550;11.940;2024-02-23T02:30:12;94832.09;;;7.35;100.00
36598;BME280;22607;49.550;11.940;2024-02-23T02:32:40;94826.63;;;7.30;100.00
36598;BME280;22607;49.550;11.940;2024-02-23T02:35:10;94831.47;;;7.33;100.00
36598;BME280;22607;49.550;11.940;2024-02-23T02:37:37;94839.72;;;7.17;100.00
36598;BME280;22607;49.550;11.940;2024-02-23T02:40:05;94844.91;;;7.23;100.00
36598;BME280;22607;49.550;11.940;2024-02-23T02:42:33;94858.38;;;7.14;100.00
36598;BME280;22607;49.550;11.940;2024-02-23T02:44:59;94854.75;;;7.01;100.00
36598;BME280;22607;49.550;11.940;2024-02-23T02:47:26;94861.56;;;7.09;100.00
36598;BME280;22607;49.550;11.940;2024-02-23T02:49:53;94870.78;;;7.05;100.00
36598;BME280;22607;49.550;11.940;2024-02-23T02:52:20;94858.75;;;7.04;100.00
36598;BME280;22607;49.550;11.940;2024-02-23T02:54:50;94865.34;;;6.86;100.00
36598;BME280;22607;49.550;11.940;2024-02-23T02:57:18;94869.38;;;6.89;100.00
36598;BME280;22607;49.550;11.940;2024-02-23T02:59:46;94886.22;;;6.86;100.00
36598;BME280;22607;49.550;11.940;2024-02-23T03:02:13;94882.81;;;6.86;100.00
36598;BME280;22607;49.550;11.940;2024-02-23T03:04:47;94890.22;;;6.75;100.00
36598;BME280;22607;49.550;11.940;2024-02-23T03:07:15;94901.88;;;6.79;100.00
36598;BME280;22607;49.550;11.940;2024-02-23T03:09:42;94901.63;;;6.74;100.00
36598;BME280;22607;49.550;11.940;2024-02-23T03:12:10;94914.50;;;6.76;100.00
36598;BME280;22607;49.550;11.940;2024-02-23T03:14:37;94906.72;;;6.89;100.00
36598;BME280;22607;49.550;11.940;2024-02-23T03:17:08;94918.97;;;6.89;100.00
36598;BME280;22607;49.550;11.940;2024-02-23T03:19:37;94918.94;;;6.82;100.00
36598;BME280;22607;49.550;11.940;2024-02-23T03:22:05;94908.03;;;6.65;100.00
36598;BME280;22607;49.550;11.940;2024-02-23T03:24:34;94894.75;;;6.53;100.00
36598;BME280;22607;49.550;11.940;2024-02-23T03:27:01;94884.31;;;6.53;100.00
36598;BME280;22607;49.550;11.940;2024-02-23T03:29:28;94912.75;;;6.41;100.00
36598;BME280;22607;49.550;11.940;2024-02-23T03:31:56;94903.16;;;6.48;100.00
36598;BME280;22607;49.550;11.940;2024-02-23T03:34:23;94902.78;;;6.58;100.00
36598;BME280;22607;49.550;11.940;2024-02-23T03:36:50;94918.84;;;6.55;100.00
36598;BME280;22607;49.550;11.940;2024-02-23T03:39:17;94925.66;;;6.56;100.00
36598;BME280;22607;49.550;11.940;2024-02-23T03:41:43;94928.97;;;6.36;100.00
36598;BME280;22607;49.550;11.940;2024-02-23T03:44:10;94939.25;;;6.45;100.00
36598;BME280;22607;49.550;11.940;2024-02-23T03:46:37;94942.28;;;6.48;100.00
36598;BME280;22607;49.550;11.940;2024-02-23T03:49:05;94935.00;;;6.43;100.00
36598;BME280;22607;49.550;11.940;2024-02-23T03:51:35;94942.97;;;6.28;100.00
36598;BME280;22607;49.550;11.940;2024-02-23T03:54:08;94950.41;;;6.32;100.00
36598;BME280;22607;49.550;11.940;2024-02-23T03:56:40;94968.59;;;6.53;100.00
36598;BME280;22607;49.550;11.940;2024-02-23T03:59:10;94965.28;;;6.38;100.00
36598;BME280;22607;49.550;11.940;2024-02-23T04:01:38;94962.19;;;6.27;100.00
36598;BME280;22607;49.550;11.940;2024-02-23T04:04:06;94958.72;;;6.13;100.00
36598;BME280;22607;49.550;11.940;2024-02-23T04:06:34;94960.00;;;6.24;100.00
36598;BME280;22607;49.550;11.940;2024-02-23T04:09:01;94969.50;;;6.39;100.00
36598;BME280;22607;49.550;11.940;2024-02-23T04:11:28;94969.28;;;6.34;100.00
36598;BME280;22607;49.550;11.940;2024-02-23T04:13:56;94966.41;;;6.22;100.00
36598;BME280;22607;49.550;11.940;2024-02-23T04:16:24;94944.47;;;6.09;100.00
36598;BME280;22607;49.550;11.940;2024-02-23T04:18:53;94964.44;;;6.30;100.00
36598;BME280;22607;49.550;11.940;2024-02-23T04:21:21;94962.59;;;6.24;100.00
36598;BME280;22607;49.550;11.940;2024-02-23T04:23:47;94960.75;;;6.18;100.00
36598;BME280;22607;49.550;11.940;2024-02-23T04:26:15;94966.16;;;6.16;100.00
36598;BME280;22607;49.550;11.940;2024-02-23T04:28:42;94968.38;;;6.20;100.00
36598;BME280;22607;49.550;11.940;2024-02-23T04:31:10;94971.41;;;6.23;100.00
36598;BME280;22607;49.550;11.940;2024-02-23T04:33:40;94958.69;;;6.07;100.00
36598;BME280;22607;49.550;11.940;2024-02-23T04:36:07;94952.69;;;5.84;100.00
36598;BME280;22607;49.550;11.940;2024-02-23T04:38:35;94963.66;;;5.80;100.00
36598;BME280;22607;49.550;11.940;2024-02-23T04:41:04;94953.88;;;5.82;100.00
36598;BME280;22607;49.550;11.940;2024-02-23T04:43:34;94954.34;;;5.92;100.00
36598;BME280;22607;49.550;11.940;2024-02-23T04:46:01;94961.56;;;5.97;100.00
36598;BME280;22607;49.550;11.940;2024-02-23T04:48:28;94967.59;;;5.97;100.00
36598;BME280;22607;49.550;11.940;2024-02-23T04:50:57;94964.06;;;5.83;100.00
36598;BME280;22607;49.550;11.940;2024-02-23T04:53:25;94978.72;;;6.06;100.00
36598;BME280;22607;49.550;11.940;2024-02-23T04:55:54;94987.06;;;6.01;100.00
36598;BME280;22607;49.550;11.940;2024-02-23T04:58:21;94987.47;;;5.76;100.00
36598;BME280;22607;49.550;11.940;2024-02-23T05:00:48;94982.69;;;5.80;100.00
36598;BME280;22607;49.550;11.940;2024-02-23T05:03:15;94985.66;;;5.77;100.00
36598;BME280;22607;49.550;11.940;2024-02-23T05:05:43;94993.03;;;5.95;100.00
36598;BME280;22607;49.550;11.940;2024-02-23T05:08:10;95010.91;;;5.76;100.00
36598;BME280;22607;49.550;11.940;2024-02-23T05:10:37;94991.56;;;5.64;100.00
36598;BME280;22607;49.550;11.940;2024-02-23T05:13:04;94990.94;;;5.62;100.00
36598;BME280;22607;49.550;11.940;2024-02-23T05:15:31;94987.91;;;5.58;100.00
36598;BME280;22607;49.550;11.940;2024-02-23T05:17:58;94998.47;;;5.72;100.00
36598;BME280;22607;49.550;11.940;2024-02-23T05:20:24;95009.00;;;5.85;100.00
36598;BME280;22607;49.550;11.940;2024-02-23T05:22:51;94986.84;;;5.52;100.00
36598;BME280;22607;49.550;11.940;2024-02-23T05:25:18;94998.16;;;5.60;100.00
36598;BME280;22607;49.550;11.940;2024-02-23T05:27:46;94998.88;;;5.75;100.00
36598;BME280;22607;49.550;11.940;2024-02-23T05:30:15;95008.56;;;5.60;100.00
36598;BME280;22607;49.550;11.940;2024-02-23T05:32:43;95004.16;;;5.82;100.00
36598;BME280;22607;49.550;11.940;2024-02-23T05:35:10;95005.44;;;5.71;100.00
36598;BME280;22607;49.550;11.940;2024-02-23T05:37:37;94988.78;;;5.65;100.00
36598;BME280;22607;49.550;11.940;2024-02-23T05:40:05;94987.22;;;5.71;100.00
36598;BME280;22607;49.550;11.940;2024-02-23T05:42:39;94993.31;;;5.78;100.00
36598;BME280;22607;49.550;11.940;2024-02-23T05:45:09;94983.72;;;5.86;100.00
36598;BME280;22607;49.550;11.940;2024-02-23T05:47:37;94986.59;;;5.91;100.00
36598;BME280;22607;49.550;11.940;2024-02-23T05:50:05;94993.88;;;5.52;100.00
36598;BME280;22607;49.550;11.940;2024-02-23T05:52:33;94989.97;;;5.63;100.00
36598;BME280;22607;49.550;11.940;2024-02-23T05:55:00;94989.41;;;5.68;100.00
36598;BME280;22607;49.550;11.940;2024-02-23T05:57:27;95004.97;;;5.61;100.00
36598;BME280;22607;49.550;11.940;2024-02-23T05:59:55;94993.78;;;5.67;100.00
36598;BME280;22607;49.550;11.940;2024-02-23T06:02:23;95009.06;;;5.70;100.00
36598;BME280;22607;49.550;11.940;2024-02-23T06:04:50;95004.97;;;5.83;100.00
36598;BME280;22607;49.550;11.940;2024-02-23T06:07:18;94996.91;;;5.56;100.00
36598;BME280;22607;49.550;11.940;2024-02-23T06:09:49;95021.84;;;5.65;100.00
36598;BME280;22607;49.550;11.940;2024-02-23T06:12:16;95016.03;;;5.63;100.00
36598;BME280;22607;49.550;11.940;2024-02-23T06:14:43;95017.91;;;5.32;100.00
36598;BME280;22607;49.550;11.940;2024-02-23T06:17:12;95008.63;;;5.45;100.00
36598;BME280;22607;49.550;11.940;2024-02-23T06:19:39;95037.75;;;5.55;100.00
36598;BME280;22607;49.550;11.940;2024-02-23T06:22:06;95046.28;;;5.64;100.00
36598;BME280;22607;49.550;11.940;2024-02-23T06:24:35;95043.53;;;5.50;100.00
36598;BME280;22607;49.550;11.940;2024-02-23T06:27:02;95037.31;;;5.51;100.00
36598;BME280;22607;49.550;11.940;2024-02-23T06:29:31;95052.41;;;5.56;100.00
36598;BME280;22607;49.550;11.940;2024-02-23T06:31:58;95052.34;;;5.49;100.00
36598;BME280;22607;49.550;11.940;2024-02-23T06:34:28;95072.19;;;5.35;100.00
36598;BME280;22607;49.550;11.940;2024-02-23T06:36:58;95074.03;;;5.57;100.00
36598;BME280;22607;49.550;11.940;2024-02-23T06:39:25;95072.78;;;5.52;100.00
36598;BME280;22607;49.550;11.940;2024-02-23T06:41:54;95087.81;;;5.50;100.00
36598;BME280;22607;49.550;11.940;2024-02-23T06:44:21;95089.75;;;5.48;100.00
36598;BME280;22607;49.550;11.940;2024-02-23T06:46:48;95106.63;;;5.52;100.00
36598;BME280;22607;49.550;11.940;2024-02-23T06:49:16;95108.53;;;5.59;100.00
36598;BME280;22607;49.550;11.940;2024-02-23T06:51:45;95098.91;;;5.59;100.00
36598;BME280;22607;49.550;11.940;2024-02-23T06:54:11;95104.94;;;5.60;100.00
36598;BME280;22607;49.550;11.940;2024-02-23T06:56:38;95119.03;;;5.65;100.00
36598;BME280;22607;49.550;11.940;2024-02-23T06:59:05;95114.50;;;5.74;100.00
36598;BME280;22607;49.550;11.940;2024-02-23T07:01:32;95112.97;;;5.80;100.00
36598;BME280;22607;49.550;11.940;2024-02-23T07:04:06;95109.53;;;5.80;100.00
36598;BME280;22607;49.550;11.940;2024-02-23T07:06:34;95114.94;;;5.78;100.00
36598;BME280;22607;49.550;11.940;2024-02-23T07:09:03;95106.69;;;5.74;100.00
36598;BME280;22607;49.550;11.940;2024-02-23T07:11:30;95110.44;;;5.87;100.00
36598;BME280;22607;49.550;11.940;2024-02-23T07:13:57;95123.66;;;5.70;100.00
36598;BME280;22607;49.550;11.940;2024-02-23T07:16:24;95108.78;;;5.86;100.00
36598;BME280;22607;49.550;11.940;2024-02-23T07:18:52;95104.56;;;5.85;100.00
36598;BME280;22607;49.550;11.940;2024-02-23T07:21:19;95108.16;;;5.62;100.00
36598;BME280;22607;49.550;11.940;2024-02-23T07:23:49;95092.91;;;5.59;100.00
36598;BME280;22607;49.550;11.940;2024-02-23T07:26:16;95075.91;;;5.63;100.00
36598;BME280;22607;49.550;11.940;2024-02-23T07:28:43;95083.97;;;5.68;100.00
36598;BME280;22607;49.550;11.940;2024-02-23T07:31:14;95099.50;;;5.98;100.00
36598;BME280;22607;49.550;11.940;2024-02-23T07:33:42;95079.38;;;5.70;100.00
36598;BME280;22607;49.550;11.940;2024-02-23T07:36:16;95090.31;;;5.81;100.00
36598;BME280;22607;49.550;11.940;2024-02-23T07:38:45;95101.31;;;5.98;100.00
36598;BME280;22607;49.550;11.940;2024-02-23T07:41:12;95084.22;;;5.95;100.00
36598;BME280;22607;49.550;11.940;2024-02-23T07:43:42;95089.50;;;6.02;100.00
36598;BME280;22607;49.550;11.940;2024-02-23T07:46:12;95089.22;;;6.12;100.00
36598;BME280;22607;49.550;11.940;2024-02-23T07:48:39;95086.03;;;5.95;100.00
36598;BME280;22607;49.550;11.940;2024-02-23T07:51:17;95121.97;;;5.99;100.00
36598;BME280;22607;49.550;11.940;2024-02-23T07:53:47;95122.16;;;5.98;100.00
36598;BME280;22607;49.550;11.940;2024-02-23T07:56:16;95095.91;;;5.77;100.00
36598;BME280;22607;49.550;11.940;2024-02-23T07:58:43;95111.16;;;5.81;100.00
36598;BME280;22607;49.550;11.940;2024-02-23T08:01:14;95132.00;;;5.81;100.00
36598;BME280;22607;49.550;11.940;2024-02-23T08:04:00;95132.72;;;5.74;100.00
36598;BME280;22607;49.550;11.940;2024-02-23T08:06:35;95145.34;;;5.93;100.00
36598;BME280;22607;49.550;11.940;2024-02-23T08:09:03;95137.13;;;5.74;100.00
36598;BME280;22607;49.550;11.940;2024-02-23T08:11:30;95151.88;;;5.82;100.00
36598;BME280;22607;49.550;11.940;2024-02-23T08:14:04;95133.69;;;5.88;100.00
36598;BME280;22607;49.550;11.940;2024-02-23T08:16:31;95120.63;;;5.67;100.00
36598;BME280;22607;49.550;11.940;2024-02-23T08:19:01;95125.53;;;5.76;100.00
36598;BME280;22607;49.550;11.940;2024-02-23T08:21:34;95135.63;;;5.64;100.00
36598;BME280;22607;49.550;11.940;2024-02-23T08:24:01;95165.56;;;5.90;100.00
36598;BME280;22607;49.550;11.940;2024-02-23T08:26:34;95150.38;;;5.94;100.00
36598;BME280;22607;49.550;11.940;2024-02-23T08:29:02;95159.97;;;6.09;100.00
36598;BME280;22607;49.550;11.940;2024-02-23T08:31:32;95156.63;;;6.15;100.00
36598;BME280;22607;49.550;11.940;2024-02-23T08:34:02;95164.63;;;6.13;100.00
36598;BME280;22607;49.550;11.940;2024-02-23T08:36:32;95156.81;;;6.13;100.00
36598;BME280;22607;49.550;11.940;2024-02-23T08:38:59;95138.63;;;6.20;100.00
36598;BME280;22607;49.550;11.940;2024-02-23T08:41:31;95138.53;;;6.28;100.00
36598;BME280;22607;49.550;11.940;2024-02-23T08:43:58;95147.38;;;6.34;100.00
36598;BME280;22607;49.550;11.940;2024-02-23T08:46:27;95145.06;;;6.46;100.00
36598;BME280;22607;49.550;11.940;2024-02-23T08:48:58;95112.31;;;6.15;100.00
36598;BME280;22607;49.550;11.940;2024-02-23T08:51:24;95120.94;;;6.15;100.00
36598;BME280;22607;49.550;11.940;2024-02-23T08:53:51;95131.41;;;6.44;100.00
36598;BME280;22607;49.550;11.940;2024-02-23T08:56:20;95121.94;;;6.14;100.00
36598;BME280;22607;49.550;11.940;2024-02-23T08:58:47;95132.59;;;6.41;100.00
36598;BME280;22607;49.550;11.940;2024-02-23T09:01:16;95137.13;;;6.33;100.00
36598;BME280;22607;49.550;11.940;2024-02-23T09:03:44;95143.91;;;6.27;100.00
36598;BME280;22607;49.550;11.940;2024-02-23T09:06:11;95141.50;;;6.47;100.00
36598;BME280;22607;49.550;11.940;2024-02-23T09:08:40;95153.22;;;6.36;100.00
36598;BME280;22607;49.550;11.940;2024-02-23T09:11:07;95166.19;;;6.29;100.00
36598;BME280;22607;49.550;11.940;2024-02-23T09:13:41;95156.88;;;6.42;100.00
36598;BME280;22607;49.550;11.940;2024-02-23T09:16:20;95153.84;;;6.38;100.00
36598;BME280;22607;49.550;11.940;2024-02-23T09:18:50;95149.38;;;6.54;100.00
36598;BME280;22607;49.550;11.940;2024-02-23T09:21:19;95146.44;;;6.42;100.00
36598;BME280;22607;49.550;11.940;2024-02-23T09:23:48;95164.19;;;6.32;100.00
36598;BME280;22607;49.550;11.940;2024-02-23T09:26:14;95127.56;;;6.18;100.00
36598;BME280;22607;49.550;11.940;2024-02-23T09:28:44;95148.38;;;6.33;100.00
36598;BME280;22607;49.550;11.940;2024-02-23T09:31:22;95183.59;;;6.44;100.00
36598;BME280;22607;49.550;11.940;2024-02-23T09:33:50;95187.38;;;6.63;100.00
36598;BME280;22607;49.550;11.940;2024-02-23T09:36:18;95175.25;;;6.34;100.00
36598;BME280;22607;49.550;11.940;2024-02-23T09:38:46;95157.19;;;6.54;100.00
36598;BME280;22607;49.550;11.940;2024-02-23T09:41:21;95174.13;;;6.65;100.00
36598;BME280;22607;49.550;11.940;2024-02-23T09:43:51;95137.75;;;6.35;98.94
36598;BME280;22607;49.550;11.940;2024-02-23T09:46:21;95178.72;;;6.63;96.56
36598;BME280;22607;49.550;11.940;2024-02-23T09:48:53;95171.13;;;6.68;96.80
36598;BME280;22607;49.550;11.940;2024-02-23T09:51:22;95184.81;;;6.70;96.43
36598;BME280;22607;49.550;11.940;2024-02-23T09:53:52;95184.19;;;6.68;95.68
36598;BME280;22607;49.550;11.940;2024-02-23T09:56:27;95203.31;;;6.75;96.13
36598;BME280;22607;49.550;11.940;2024-02-23T09:58:58;95203.31;;;7.04;91.87
36598;BME280;22607;49.550;11.940;2024-02-23T10:01:29;95206.13;;;7.02;91.91
36598;BME280;22607;49.550;11.940;2024-02-23T10:04:04;95213.38;;;6.78;94.41
36598;BME280;22607;49.550;11.940;2024-02-23T10:06:34;95198.84;;;6.69;93.81
36598;BME280;22607;49.550;11.940;2024-02-23T10:09:01;95184.13;;;6.61;97.14
36598;BME280;22607;49.550;11.940;2024-02-23T10:11:30;95180.19;;;6.94;92.30
36598;BME280;22607;49.550;11.940;2024-02-23T10:13:57;95177.22;;;6.75;93.23
36598;BME280;22607;49.550;11.940;2024-02-23T10:16:24;95168.47;;;6.61;100.00
36598;BME280;22607;49.550;11.940;2024-02-23T10:18:51;95195.97;;;6.86;100.00
36598;BME280;22607;49.550;11.940;2024-02-23T10:21:18;95208.00;;;6.87;96.18
36598;BME280;22607;49.550;11.940;2024-02-23T10:23:45;95220.00;;;6.81;93.21
36598;BME280;22607;49.550;11.940;2024-02-23T10:26:12;95216.22;;;6.83;92.58
36598;BME280;22607;49.550;11.940;2024-02-23T10:28:42;95212.50;;;6.49;95.51
36598;BME280;22607;49.550;11.940;2024-02-23T10:31:09;95192.44;;;6.72;96.93
36598;BME280;22607;49.550;11.940;2024-02-23T10:33:39;95197.72;;;6.78;99.17
36598;BME280;22607;49.550;11.940;2024-02-23T10:36:07;95207.31;;;6.71;89.58
36598;BME280;22607;49.550;11.940;2024-02-23T10:38:38;95213.72;;;6.97;89.02
36598;BME280;22607;49.550;11.940;2024-02-23T10:41:09;95212.00;;;6.82;90.00
36598;BME280;22607;49.550;11.940;2024-02-23T10:43:51;95218.97;;;6.53;90.65
36598;BME280;22607;49.550;11.940;2024-02-23T10:46:19;95220.75;;;6.75;86.11
36598;BME280;22607;49.550;11.940;2024-02-23T10:48:48;95213.47;;;6.63;90.85
36598;BME280;22607;49.550;11.940;2024-02-23T10:51:16;95220.13;;;6.94;91.91
36598;BME280;22607;49.550;11.940;2024-02-23T10:53:48;95232.72;;;7.13;82.99
36598;BME280;22607;49.550;11.940;2024-02-23T10:56:15;95212.81;;;6.83;84.70
36598;BME280;22607;49.550;11.940;2024-02-23T10:58:43;95212.28;;;7.23;78.42
36598;BME280;22607;49.550;11.940;2024-02-23T11:01:10;95209.06;;;6.92;82.33
36598;BME280;22607;49.550;11.940;2024-02-23T11:03:42;95213.22;;;6.87;83.92
36598;BME280;22607;49.550;11.940;2024-02-23T11:06:11;95193.50;;;6.77;84.56
36598;BME280;22607;49.550;11.940;2024-02-23T11:08:38;95193.47;;;6.99;84.29
36598;BME280;22607;49.550;11.940;2024-02-23T11:11:08;95210.06;;;6.91;78.61
36598;BME280;22607;49.550;11.940;2024-02-23T11:13:38;95206.41;;;6.86;80.60
36598;BME280;22607;49.550;11.940;2024-02-23T11:16:07;95221.72;;;6.95;80.39
36598;BME280;22607;49.550;11.940;2024-02-23T11:18:36;95204.34;;;6.81;77.67
36598;BME280;22607;49.550;11.940;2024-02-23T11:21:05;95221.06;;;6.87;77.12
36598;BME280;22607;49.550;11.940;2024-02-23T11:23:40;95199.34;;;6.57;79.01
36598;BME280;22607;49.550;11.940;2024-02-23T11:26:12;95211.97;;;7.04;75.23
36598;BME280;22607;49.550;11.940;2024-02-23T11:31:20;95191.69;;;7.06;76.71
36598;BME280;22607;49.550;11.940;2024-02-23T11:33:48;95198.53;;;7.07;74.10
36598;BME280;22607;49.550;11.940;2024-02-23T11:36:32;95199.16;;;7.09;75.36
36598;BME280;22607;49.550;11.940;2024-02-23T11:39:00;95205.47;;;7.22;76.66
36598;BME280;22607;49.550;11.940;2024-02-23T11:41:31;95175.66;;;7.09;73.52
36598;BME280;22607;49.550;11.940;2024-02-23T11:44:01;95199.38;;;7.15;73.34
36598;BME280;22607;49.550;11.940;2024-02-23T11:46:30;95185.94;;;7.18;70.92
36598;BME280;22607;49.550;11.940;2024-02-23T11:48:57;95197.31;;;7.03;71.30
36598;BME280;22607;49.550;11.940;2024-02-23T11:51:26;95179.63;;;7.05;71.37
36598;BME280;22607;49.550;11.940;2024-02-23T11:53:55;95196.94;;;7.42;69.54
36598;BME280;22607;49.550;11.940;2024-02-23T11:56:27;95187.94;;;6.87;70.90
36598;BME280;22607;49.550;11.940;2024-02-23T11:58:55;95201.22;;;7.21;74.26
36598;BME280;22607;49.550;11.940;2024-02-23T12:01:22;95190.13;;;7.12;72.37
36598;BME280;22607;49.550;11.940;2024-02-23T12:03:49;95187.88;;;7.09;73.79
36598;BME280;22607;49.550;11.940;2024-02-23T12:06:16;95188.97;;;7.21;72.57
36598;BME280;22607;49.550;11.940;2024-02-23T12:08:44;95202.63;;;7.23;72.00
36598;BME280;22607;49.550;11.940;2024-02-23T12:11:13;95185.72;;;7.13;70.99
36598;BME280;22607;49.550;11.940;2024-02-23T12:13:43;95189.88;;;7.35;71.05
36598;BME280;22607;49.550;11.940;2024-02-23T12:16:12;95186.31;;;7.15;70.47
36598;BME280;22607;49.550;11.940;2024-02-23T12:18:38;95180.63;;;7.40;69.01
36598;BME280;22607;49.550;11.940;2024-02-23T12:21:07;95179.81;;;7.32;70.37
36598;BME280;22607;49.550;11.940;2024-02-23T12:23:44;95203.81;;;7.21;70.26
36598;BME280;22607;49.550;11.940;2024-02-23T12:26:13;95203.19;;;7.12;72.25
36598;BME280;22607;49.550;11.940;2024-02-23T12:28:41;95193.47;;;7.34;73.02
36598;BME280;22607;49.550;11.940;2024-02-23T12:31:08;95185.59;;;7.28;69.97
36598;BME280;22607;49.550;11.940;2024-02-23T12:33:40;95174.22;;;7.35;71.44
36598;BME280;22607;49.550;11.940;2024-02-23T12:36:08;95188.72;;;7.45;70.52
36598;BME280;22607;49.550;11.940;2024-02-23T12:38:41;95189.56;;;7.52;70.36
36598;BME280;22607;49.550;11.940;2024-02-23T12:41:09;95189.09;;;7.42;70.03
36598;BME280;22607;49.550;11.940;2024-02-23T12:43:38;95182.72;;;7.51;69.04
36598;BME280;22607;49.550;11.940;2024-02-23T12:46:10;95176.81;;;7.42;70.39
36598;BME280;22607;49.550;11.940;2024-02-23T12:48:41;95173.34;;;7.70;67.73
36598;BME280;22607;49.550;11.940;2024-02-23T12:51:14;95180.09;;;7.51;70.02
36598;BME280;22607;49.550;11.940;2024-02-23T12:53:42;95183.38;;;7.67;68.87
36598;BME280;22607;49.550;11.940;2024-02-23T12:56:11;95162.97;;;7.42;69.53
36598;BME280;22607;49.550;11.940;2024-02-23T12:58:41;95162.53;;;7.31;69.34
36598;BME280;22607;49.550;11.940;2024-02-23T13:01:10;95165.88;;;7.60;70.24
36598;BME280;22607;49.550;11.940;2024-02-23T13:03:38;95172.13;;;7.59;69.04